الصفحة الرئيسية
METAR-TAF:

METAR-TAF

مطار :

Ciudad Bolívar, فنزويلا

دائرة عرض: 08-09N, خط طول: 063-33W, ارتفاع: 43 متر

مراقبة الطقس الحالي

تاريخ ووقت الإصدار 25 دقيقة قبل الساعة 15:03UTC
ريح 10 عقدة من الشرق
درجة الحرارة 29°درجة مئوية
الرطوبة 55%
ضغط 1016 hPa

METAR: SVCB 011503Z AUTO 08010KT NCD 29/19 Q1016

زمن: 11:28 (15:28 UTC)


TAF: مفقودة

أرصاد الطقس والتوقعات من أكثر من 4000 مطار (تقارير الطقس للمطار METAR والتنبؤ بالطقس بالمطارTAF).

المحطات المتاحة هي النقط الصفراء والحمراء على الخريطة.

حرك المؤشر فوق النقطة لمعرفة اسم المحطة.

ثم انقر لمعرفة أرصاد وتوقعات الطقس.

لتغيير الخارطة: اضغط على الأزرار الخضراء مع رمز الصليب الأسود للتكبير. على الزر الأخضر مع شرطة للتصغير، أو على الأسهم الخضراء للخرائط المجاورة.


METAR-TAF: